Time;durP1;ratioP1;P1;durP2;ratioP2;P2;SDS_P1;SDS_P2;PMS_P1;PMS_P2;Temp;Humidity;BMP_temperature;BMP_pressure;BME280_temperature;BME280_humidity;BME280_pressure;Samples;Min_cycle;Max_cycle;Signal;HPM_P1;HPM_P2
2022/09/29 00:01:02;;;;;;;2.05;1.85;;;;;;;;;;4984201;28;20047;-68
2022/09/29 00:03:27;;;;;;;1.50;1.40;;;;;;;;;;4983333;28;20387;-68
2022/09/29 00:05:54;;;;;;;4.90;1.50;;;;;;;;;;4984662;28;20046;-68
2022/09/29 00:08:22;;;;;;;1.40;1.30;;;;;;;;;;4984877;28;20054;-68
2022/09/29 00:10:48;;;;;;;1.25;1.13;;;;;;;;;;4981500;28;20042;-68
2022/09/29 00:13:14;;;;;;;1.35;1.23;;;;;;;;;;4980265;28;20040;-68
2022/09/29 00:15:40;;;;;;;1.20;1.20;;;;;;;;;;4981515;28;20107;-69
2022/09/29 00:18:07;;;;;;;1.83;1.27;;;;;;;;;;4987098;28;20088;-68
2022/09/29 00:20:33;;;;;;;1.50;1.40;;;;;;;;;;4980939;28;20050;-68
2022/09/29 00:22:59;;;;;;;1.83;1.73;;;;;;;;;;4980532;28;20078;-69
2022/09/29 00:25:24;;;;;;;5.57;1.80;;;;;;;;;;4981220;28;20133;-69
2022/09/29 00:27:50;;;;;;;3.30;1.55;;;;;;;;;;4985726;28;20136;-69
2022/09/29 00:30:15;;;;;;;4.57;1.88;;;;;;;;;;4990154;28;20748;-69
2022/09/29 00:32:41;;;;;;;2.53;1.98;;;;;;;;;;4980969;28;20050;-68
2022/09/29 00:35:09;;;;;;;4.53;2.10;;;;;;;;;;4981091;28;20081;-68
2022/09/29 00:37:35;;;;;;;4.03;1.90;;;;;;;;;;4981045;28;20430;-68
2022/09/29 00:40:01;;;;;;;2.38;2.17;;;;;;;;;;4986746;28;20050;-68
2022/09/29 00:42:26;;;;;;;2.40;2.10;;;;;;;;;;4996570;28;20042;-68
2022/09/29 00:45:04;;;;;;;2.38;2.17;;;;;;;;;;4981226;28;20046;-68
2022/09/29 00:47:33;;;;;;;3.45;2.53;;;;;;;;;;4963572;28;20050;-68
2022/09/29 00:50:18;;;;;;;3.33;2.40;;;;;;;;;;4965514;28;20041;-69
2022/09/29 00:52:48;;;;;;;2.25;2.00;;;;;;;;;;4994050;28;20046;-69
2022/09/29 00:55:16;;;;;;;1.92;1.83;;;;;;;;;;4980440;28;20050;-67
2022/09/29 00:57:51;;;;;;;2.90;1.60;;;;;;;;;;4981191;28;20081;-69
2022/09/29 01:00:16;;;;;;;1.60;1.50;;;;;;;;;;4984617;28;20065;-69
2022/09/29 01:02:53;;;;;;;2.22;1.80;;;;;;;;;;4990269;28;20417;-68
2022/09/29 01:05:24;;;;;;;1.63;1.52;;;;;;;;;;4984998;28;20080;-67
2022/09/29 01:07:50;;;;;;;2.80;1.50;;;;;;;;;;4984774;28;20054;-69
2022/09/29 01:10:16;;;;;;;2.88;1.42;;;;;;;;;;4984360;28;20486;-68
2022/09/29 01:12:44;;;;;;;2.00;1.70;;;;;;;;;;4989810;28;20467;-69
2022/09/29 01:15:12;;;;;;;1.67;1.55;;;;;;;;;;4992543;28;20052;-69
2022/09/29 01:17:38;;;;;;;2.05;1.60;;;;;;;;;;4987072;28;20050;-69
2022/09/29 01:20:15;;;;;;;2.15;1.70;;;;;;;;;;4987266;28;20789;-69
2022/09/29 01:23:17;;;;;;;1.98;1.80;;;;;;;;;;4992931;28;20133;-69
2022/09/29 01:26:32;;;;;;;2.00;1.85;;;;;;;;;;4973393;28;20137;-69
2022/09/29 01:29:31;;;;;;;2.95;1.98;;;;;;;;;;4986918;28;20050;-68
2022/09/29 01:32:14;;;;;;;1.80;1.70;;;;;;;;;;4984434;28;20056;-68
2022/09/29 01:35:07;;;;;;;1.98;1.75;;;;;;;;;;4989965;28;20136;-68
2022/09/29 01:37:52;;;;;;;2.10;1.92;;;;;;;;;;4966934;28;20510;-68
2022/09/29 01:40:28;;;;;;;3.63;1.70;;;;;;;;;;4983676;28;20130;-67
2022/09/29 01:43:07;;;;;;;1.80;1.70;;;;;;;;;;4987677;28;20173;-68
2022/09/29 01:45:37;;;;;;;1.63;1.52;;;;;;;;;;4980878;28;20056;-67
2022/09/29 01:48:08;;;;;;;1.60;1.50;;;;;;;;;;4986370;28;21063;-67
2022/09/29 01:50:57;;;;;;;1.80;1.58;;;;;;;;;;4966138;28;20065;-68
2022/09/29 01:53:29;;;;;;;2.38;1.75;;;;;;;;;;4997049;28;20046;-68
2022/09/29 01:55:58;;;;;;;;;;;;;;;;;;4987672;28;20050;-69
2022/09/29 01:58:29;;;;;;;4.50;1.55;;;;;;;;;;4983611;28;19926;-69
2022/09/29 02:01:00;;;;;;;4.45;1.98;;;;;;;;;;4990072;28;20100;-69
2022/09/29 02:03:31;;;;;;;4.47;1.77;;;;;;;;;;4983916;28;20057;-69
2022/09/29 02:06:07;;;;;;;3.38;1.90;;;;;;;;;;4983538;28;20054;-69
2022/09/29 02:08:49;;;;;;;2.08;1.88;;;;;;;;;;4983429;28;20408;-69
2022/09/29 02:11:16;;;;;;;3.30;2.30;;;;;;;;;;4989795;28;20058;-68
2022/09/29 02:13:50;;;;;;;3.10;2.65;;;;;;;;;;4982931;28;20054;-68
2022/09/29 02:16:20;;;;;;;3.97;2.38;;;;;;;;;;4997247;28;20112;-68
2022/09/29 02:19:05;;;;;;;3.33;2.25;;;;;;;;;;4989336;28;20057;-68
2022/09/29 02:21:30;;;;;;;3.60;2.30;;;;;;;;;;4967066;28;20573;-67
2022/09/29 02:23:56;;;;;;;2.65;2.20;;;;;;;;;;4986841;28;20062;-67
2022/09/29 02:26:24;;;;;;;5.32;2.10;;;;;;;;;;4989346;28;20050;-68
2022/09/29 02:28:51;;;;;;;3.47;2.00;;;;;;;;;;4982944;28;20058;-67
2022/09/29 02:31:17;;;;;;;5.10;2.60;;;;;;;;;;4991192;28;20093;-67
2022/09/29 02:33:43;;;;;;;2.45;2.20;;;;;;;;;;4991164;28;20410;-67
2022/09/29 02:36:22;;;;;;;2.85;2.30;;;;;;;;;;4983674;28;20045;-67
2022/09/29 02:38:56;;;;;;;3.60;3.00;;;;;;;;;;4992202;28;20495;-67
2022/09/29 02:41:54;;;;;;;3.33;2.85;;;;;;;;;;4980962;28;20151;-68
2022/09/29 02:44:31;;;;;;;4.15;3.28;;;;;;;;;;4987591;28;20050;-68
2022/09/29 02:47:15;;;;;;;6.93;3.20;;;;;;;;;;4989837;28;20058;-68
2022/09/29 02:49:46;;;;;;;4.57;2.85;;;;;;;;;;4989953;28;20046;-67
2022/09/29 02:52:21;;;;;;;15.00;3.73;;;;;;;;;;4994894;28;20056;-68
2022/09/29 02:54:58;;;;;;;4.43;3.35;;;;;;;;;;4980861;28;20306;-68
2022/09/29 02:57:52;;;;;;;4.18;3.60;;;;;;;;;;4989332;28;20050;-68
2022/09/29 03:00:18;;;;;;;4.07;3.67;;;;;;;;;;4981300;28;20050;-68
2022/09/29 03:02:44;;;;;;;4.20;3.78;;;;;;;;;;4982234;28;20050;-68
2022/09/29 03:05:16;;;;;;;5.95;4.28;;;;;;;;;;4986179;28;20050;-68
2022/09/29 03:07:41;;;;;;;7.95;4.88;;;;;;;;;;4982424;28;20065;-67
2022/09/29 03:10:08;;;;;;;6.75;5.00;;;;;;;;;;4982101;28;20054;-67
2022/09/29 03:12:35;;;;;;;5.90;4.47;;;;;;;;;;4983567;28;20053;-67
2022/09/29 03:15:00;;;;;;;5.00;4.50;;;;;;;;;;4984907;28;20042;-67
2022/09/29 03:17:26;;;;;;;6.07;4.80;;;;;;;;;;4988321;28;20069;-67
2022/09/29 03:19:51;;;;;;;5.78;4.82;;;;;;;;;;4989103;28;20049;-67
2022/09/29 03:22:17;;;;;;;8.43;4.80;;;;;;;;;;4989710;28;20129;-67
2022/09/29 03:24:44;;;;;;;9.10;4.68;;;;;;;;;;4982079;28;20050;-67
2022/09/29 03:27:10;;;;;;;5.60;4.30;;;;;;;;;;4980975;28;20054;-67
2022/09/29 03:29:36;;;;;;;4.85;4.25;;;;;;;;;;4981823;28;20776;-67
2022/09/29 03:32:03;;;;;;;5.22;4.63;;;;;;;;;;4981744;28;20097;-67
2022/09/29 03:34:28;;;;;;;6.78;4.10;;;;;;;;;;4981686;28;20081;-67
2022/09/29 03:36:54;;;;;;;5.03;4.53;;;;;;;;;;4982052;28;20086;-67
2022/09/29 03:39:20;;;;;;;6.10;4.28;;;;;;;;;;4987451;28;20132;-67
2022/09/29 03:41:46;;;;;;;5.05;4.22;;;;;;;;;;4981465;28;20038;-67
2022/09/29 03:44:11;;;;;;;7.78;4.13;;;;;;;;;;4981495;28;20572;-68
2022/09/29 03:46:37;;;;;;;4.80;3.88;;;;;;;;;;4981722;28;20042;-67
2022/09/29 03:49:02;;;;;;;5.00;3.88;;;;;;;;;;4980705;28;20454;-67
2022/09/29 03:51:28;;;;;;;4.18;3.78;;;;;;;;;;4999515;28;20042;-67
2022/09/29 03:53:54;;;;;;;5.47;3.35;;;;;;;;;;4999443;28;20418;-68
2022/09/29 03:56:19;;;;;;;3.95;3.55;;;;;;;;;;4985639;28;20177;-68
2022/09/29 03:58:44;;;;;;;5.22;3.30;;;;;;;;;;4986072;28;20038;-65
2022/09/29 04:01:10;;;;;;;8.57;3.95;;;;;;;;;;4994595;28;20049;-67
2022/09/29 04:03:35;;;;;;;3.38;3.08;;;;;;;;;;4987068;28;20047;-68
2022/09/29 04:06:01;;;;;;;9.25;3.67;;;;;;;;;;4982220;28;20132;-68
2022/09/29 04:08:26;;;;;;;3.30;3.00;;;;;;;;;;4981645;28;20054;-68
2022/09/29 04:10:52;;;;;;;3.40;3.10;;;;;;;;;;4984377;28;20057;-68
2022/09/29 04:13:17;;;;;;;3.55;3.00;;;;;;;;;;4987535;28;20054;-68
2022/09/29 04:15:43;;;;;;;3.33;3.03;;;;;;;;;;4984527;28;20419;-68
2022/09/29 04:18:08;;;;;;;4.32;3.28;;;;;;;;;;4983249;28;20034;-67
2022/09/29 04:20:34;;;;;;;5.63;2.42;;;;;;;;;;4982499;28;20064;-68
2022/09/29 04:23:00;;;;;;;2.80;2.60;;;;;;;;;;4981756;28;20054;-68
2022/09/29 04:25:26;;;;;;;4.75;2.38;;;;;;;;;;4983992;28;20561;-69
2022/09/29 04:27:52;;;;;;;5.15;2.25;;;;;;;;;;4982401;28;20058;-68
2022/09/29 04:30:18;;;;;;;3.15;2.53;;;;;;;;;;4982354;28;20050;-69
2022/09/29 04:32:43;;;;;;;2.15;2.00;;;;;;;;;;4980909;28;20051;-68
2022/09/29 04:35:09;;;;;;;2.63;2.42;;;;;;;;;;4979180;28;20499;-68
2022/09/29 04:37:34;;;;;;;2.70;2.50;;;;;;;;;;4988050;28;20081;-69
2022/09/29 04:40:01;;;;;;;5.82;2.33;;;;;;;;;;4985423;28;20057;-69
2022/09/29 04:42:26;;;;;;;5.28;3.38;;;;;;;;;;4984893;28;20057;-68
2022/09/29 04:44:52;;;;;;;3.90;3.08;;;;;;;;;;4983284;28;20418;-68
2022/09/29 04:47:17;;;;;;;4.32;3.25;;;;;;;;;;4993726;28;20406;-68
2022/09/29 04:49:43;;;;;;;5.57;4.78;;;;;;;;;;4973028;28;20085;-68
2022/09/29 04:52:11;;;;;;;6.75;3.78;;;;;;;;;;4989665;28;20158;-68
2022/09/29 04:54:36;;;;;;;7.80;3.90;;;;;;;;;;4990854;28;20048;-69
2022/09/29 04:57:02;;;;;;;9.65;4.75;;;;;;;;;;4987956;28;20038;-69
2022/09/29 04:59:28;;;;;;;6.63;4.05;;;;;;;;;;4992518;28;20053;-69
2022/09/29 05:01:53;;;;;;;6.00;4.25;;;;;;;;;;4988595;28;20061;-69
2022/09/29 05:04:19;;;;;;;7.40;4.95;;;;;;;;;;4986485;28;20599;-68
2022/09/29 05:06:45;;;;;;;8.18;5.05;;;;;;;;;;4986446;28;20498;-69
2022/09/29 05:09:10;;;;;;;8.80;6.10;;;;;;;;;;4988586;28;20049;-69
2022/09/29 05:11:36;;;;;;;6.72;5.35;;;;;;;;;;4994472;28;20050;-67
2022/09/29 05:14:01;;;;;;;8.35;5.25;;;;;;;;;;4974663;28;20049;-69
2022/09/29 05:16:27;;;;;;;5.82;4.70;;;;;;;;;;4983254;28;20053;-69
2022/09/29 05:18:52;;;;;;;5.40;4.35;;;;;;;;;;4984537;28;20061;-69
2022/09/29 05:21:18;;;;;;;7.15;4.65;;;;;;;;;;4969113;28;20422;-68
2022/09/29 05:23:43;;;;;;;5.45;4.72;;;;;;;;;;4984322;28;20832;-69
2022/09/29 05:26:10;;;;;;;8.10;4.78;;;;;;;;;;4984985;28;20109;-69
2022/09/29 05:28:37;;;;;;;7.35;5.10;;;;;;;;;;4982105;28;20131;-69
2022/09/29 05:31:05;;;;;;;7.95;5.13;;;;;;;;;;4983347;28;20042;-69
2022/09/29 05:33:30;;;;;;;8.70;5.45;;;;;;;;;;4986995;28;20069;-71
2022/09/29 05:35:56;;;;;;;6.70;4.90;;;;;;;;;;4987722;28;20657;-71
2022/09/29 05:38:22;;;;;;;7.65;5.38;;;;;;;;;;4990925;28;20479;-71
2022/09/29 05:40:48;;;;;;;5.80;4.55;;;;;;;;;;4988926;28;20055;-71
2022/09/29 05:43:14;;;;;;;6.38;4.82;;;;;;;;;;4986250;28;20050;-71
2022/09/29 05:45:39;;;;;;;8.13;4.78;;;;;;;;;;4989704;28;20045;-70
2022/09/29 05:48:05;;;;;;;6.13;4.65;;;;;;;;;;4992267;28;20062;-70
2022/09/29 05:50:31;;;;;;;4.63;4.05;;;;;;;;;;4989558;28;20042;-71
2022/09/29 05:53:02;;;;;;;7.47;4.05;;;;;;;;;;4987993;28;20054;-70
2022/09/29 05:55:27;;;;;;;5.78;4.10;;;;;;;;;;4952000;28;20081;-69
2022/09/29 05:57:53;;;;;;;4.28;3.70;;;;;;;;;;4980649;28;20483;-70
2022/09/29 06:00:18;;;;;;;4.25;3.80;;;;;;;;;;4991093;28;20042;-70
2022/09/29 06:02:44;;;;;;;7.13;4.28;;;;;;;;;;4984680;28;20043;-70
2022/09/29 06:05:09;;;;;;;5.20;4.00;;;;;;;;;;4988919;28;20127;-70
2022/09/29 06:07:35;;;;;;;5.60;4.70;;;;;;;;;;4988668;28;20137;-70
2022/09/29 06:10:00;;;;;;;6.78;6.07;;;;;;;;;;4990855;28;20053;-70
2022/09/29 06:12:26;;;;;;;7.53;5.88;;;;;;;;;;4985069;28;20044;-70
2022/09/29 06:14:51;;;;;;;9.00;6.03;;;;;;;;;;4991394;28;20124;-71
2022/09/29 06:17:16;;;;;;;9.38;6.45;;;;;;;;;;4985015;28;20451;-70
2022/09/29 06:19:42;;;;;;;7.18;5.82;;;;;;;;;;4991787;28;20043;-68
2022/09/29 06:22:07;;;;;;;9.40;4.57;;;;;;;;;;4991967;28;20739;-69
2022/09/29 06:24:33;;;;;;;5.53;4.97;;;;;;;;;;4982748;28;20042;-70
2022/09/29 06:26:58;;;;;;;5.28;4.78;;;;;;;;;;4997602;28;20057;-68
2022/09/29 06:29:24;;;;;;;5.55;4.88;;;;;;;;;;4990645;28;20050;-70
2022/09/29 06:31:49;;;;;;;6.60;5.63;;;;;;;;;;4990894;28;21160;-71
2022/09/29 06:34:14;;;;;;;6.75;5.05;;;;;;;;;;4985009;28;20050;-70
2022/09/29 06:39:26;;;;;;;7.13;4.38;;;;;;;;;;4982696;28;20047;-69
2022/09/29 06:41:54;;;;;;;5.05;4.10;;;;;;;;;;4984406;28;20049;-70
2022/09/29 06:44:23;;;;;;;3.83;3.42;;;;;;;;;;4983496;28;20494;-68
2022/09/29 06:46:50;;;;;;;4.85;3.30;;;;;;;;;;4983431;28;20045;-70
2022/09/29 06:49:16;;;;;;;3.20;2.90;;;;;;;;;;4992427;28;20517;-71
2022/09/29 06:51:42;;;;;;;4.07;2.70;;;;;;;;;;4984284;28;20052;-71
2022/09/29 06:54:15;;;;;;;2.53;2.33;;;;;;;;;;4989804;28;20073;-69
2022/09/29 06:56:41;;;;;;;4.22;3.05;;;;;;;;;;4981521;28;20665;-68
2022/09/29 06:59:07;;;;;;;4.85;2.88;;;;;;;;;;4990346;28;20492;-69
2022/09/29 07:01:33;;;;;;;4.75;3.00;;;;;;;;;;4989618;28;20034;-69
2022/09/29 07:04:01;;;;;;;2.60;2.40;;;;;;;;;;4982870;28;20061;-69
2022/09/29 07:06:28;;;;;;;4.38;2.50;;;;;;;;;;4981650;28;20038;-69
2022/09/29 07:08:54;;;;;;;3.15;2.50;;;;;;;;;;4981667;28;20111;-68
2022/09/29 07:11:20;;;;;;;4.03;3.00;;;;;;;;;;4983977;28;20054;-69
2022/09/29 07:13:45;;;;;;;3.08;2.58;;;;;;;;;;4989407;28;20049;-69
2022/09/29 07:16:12;;;;;;;2.55;2.33;;;;;;;;;;4993589;28;20054;-69
2022/09/29 07:18:40;;;;;;;2.65;2.45;;;;;;;;;;4981713;28;20088;-68
2022/09/29 07:21:11;;;;;;;2.30;2.10;;;;;;;;;;4982921;28;20081;-69
2022/09/29 07:23:37;;;;;;;2.23;2.00;;;;;;;;;;4987663;28;20491;-69
2022/09/29 07:26:06;;;;;;;2.90;2.40;;;;;;;;;;4988915;28;20050;-70
2022/09/29 07:28:32;;;;;;;2.40;1.60;;;;;;;;;;4989927;28;20609;-68
2022/09/29 07:30:59;;;;;;;1.90;1.50;;;;;;;;;;4990731;28;20049;-71
2022/09/29 07:33:25;;;;;;;1.80;1.70;;;;;;;;;;4985296;28;20056;-70
2022/09/29 07:35:52;;;;;;;5.15;1.88;;;;;;;;;;4990015;28;20050;-68
2022/09/29 07:38:17;;;;;;;2.00;1.75;;;;;;;;;;4981809;28;20597;-69
2022/09/29 07:40:43;;;;;;;3.03;2.15;;;;;;;;;;4987541;28;20050;-69
2022/09/29 07:43:08;;;;;;;2.03;1.75;;;;;;;;;;4989002;28;20042;-70
2022/09/29 07:45:34;;;;;;;1.80;1.70;;;;;;;;;;4989688;28;20091;-69
2022/09/29 07:47:59;;;;;;;4.63;1.75;;;;;;;;;;4991499;28;20046;-70
2022/09/29 07:50:25;;;;;;;2.65;1.98;;;;;;;;;;4989805;28;20161;-70
2022/09/29 07:52:51;;;;;;;2.15;1.95;;;;;;;;;;4988772;28;20064;-69
2022/09/29 07:55:17;;;;;;;3.58;1.98;;;;;;;;;;4986035;28;20081;-69
2022/09/29 07:57:45;;;;;;;5.65;2.33;;;;;;;;;;4987366;28;20141;-71
2022/09/29 08:00:11;;;;;;;2.60;2.10;;;;;;;;;;4981481;28;20046;-69
2022/09/29 08:02:37;;;;;;;2.33;2.10;;;;;;;;;;4983720;28;20163;-69
2022/09/29 08:05:02;;;;;;;1.92;1.83;;;;;;;;;;4983684;28;20728;-69
2022/09/29 08:07:28;;;;;;;2.22;2.03;;;;;;;;;;4990178;28;20135;-69
2022/09/29 08:09:53;;;;;;;2.63;2.42;;;;;;;;;;4987858;28;20133;-69
2022/09/29 08:12:19;;;;;;;4.10;2.58;;;;;;;;;;4988587;28;20905;-69
2022/09/29 08:14:44;;;;;;;1.90;1.80;;;;;;;;;;4990880;28;20074;-69
2022/09/29 08:17:10;;;;;;;1.60;1.50;;;;;;;;;;4986631;28;20054;-69
2022/09/29 08:19:35;;;;;;;3.40;1.85;;;;;;;;;;4968081;28;20046;-69
2022/09/29 08:22:01;;;;;;;2.22;2.03;;;;;;;;;;4991848;28;20513;-69
2022/09/29 08:24:28;;;;;;;1.40;1.30;;;;;;;;;;4982875;28;20053;-69
2022/09/29 08:26:56;;;;;;;1.90;1.50;;;;;;;;;;4986190;28;20093;-69
2022/09/29 08:29:22;;;;;;;1.10;1.10;;;;;;;;;;4979558;28;20053;-69
2022/09/29 08:31:47;;;;;;;1.90;1.25;;;;;;;;;;4979757;28;20030;-69
2022/09/29 08:34:14;;;;;;;1.20;1.00;;;;;;;;;;4980741;28;20569;-69
2022/09/29 08:36:40;;;;;;;1.30;1.20;;;;;;;;;;4988814;28;20585;-69
2022/09/29 08:39:05;;;;;;;1.00;0.90;;;;;;;;;;4984625;28;20164;-69
2022/09/29 08:41:43;;;;;;;0.63;0.63;;;;;;;;;;4983626;28;20074;-68
2022/09/29 08:44:16;;;;;;;1.10;0.80;;;;;;;;;;4983718;28;20046;-69
2022/09/29 08:46:47;;;;;;;0.90;0.82;;;;;;;;;;4975267;28;20065;-70
2022/09/29 08:49:19;;;;;;;0.98;0.90;;;;;;;;;;4987437;28;20037;-69
2022/09/29 08:51:49;;;;;;;1.48;0.98;;;;;;;;;;4985520;28;20050;-70
2022/09/29 08:54:41;;;;;;;0.70;0.60;;;;;;;;;;4988219;28;20506;-70
2022/09/29 08:57:18;;;;;;;0.90;0.90;;;;;;;;;;4985636;28;20134;-72
2022/09/29 08:59:57;;;;;;;1.40;0.90;;;;;;;;;;4977412;28;20045;-72
2022/09/29 09:02:38;;;;;;;2.60;0.77;;;;;;;;;;4981669;28;21640;-72
2022/09/29 09:05:06;;;;;;;2.85;1.15;;;;;;;;;;4986759;28;20135;-72
2022/09/29 09:07:48;;;;;;;1.42;1.27;;;;;;;;;;4988886;28;20133;-70
2022/09/29 09:10:33;;;;;;;;;;;;;;;;;;4986848;28;20046;-71
2022/09/29 09:13:11;;;;;;;1.25;0.90;;;;;;;;;;4987198;28;20016;-69
2022/09/29 09:15:44;;;;;;;0.75;0.75;;;;;;;;;;4971060;28;20470;-70
2022/09/29 09:18:21;;;;;;;0.65;0.65;;;;;;;;;;4988961;28;20039;-70
2022/09/29 09:20:58;;;;;;;1.65;0.70;;;;;;;;;;4991080;28;20057;-70
2022/09/29 09:23:36;;;;;;;0.70;0.70;;;;;;;;;;4993415;28;20471;-70
2022/09/29 09:26:03;;;;;;;0.55;0.55;;;;;;;;;;4991500;28;20049;-70
2022/09/29 09:28:36;;;;;;;0.80;0.60;;;;;;;;;;4991534;28;20046;-70
2022/09/29 09:31:08;;;;;;;0.60;0.60;;;;;;;;;;4988020;28;20073;-69
2022/09/29 09:33:49;;;;;;;3.92;0.82;;;;;;;;;;4995423;28;20050;-71
2022/09/29 09:36:28;;;;;;;0.88;0.82;;;;;;;;;;4980642;28;20053;-70
2022/09/29 09:38:59;;;;;;;0.80;0.80;;;;;;;;;;4974343;28;20057;-73
2022/09/29 09:41:27;;;;;;;5.13;0.80;;;;;;;;;;4983682;28;20046;-71
2022/09/29 09:44:04;;;;;;;1.05;0.60;;;;;;;;;;4988249;28;20299;-71
2022/09/29 09:47:08;;;;;;;1.35;0.65;;;;;;;;;;4981603;28;20081;-69
2022/09/29 09:49:46;;;;;;;0.60;0.60;;;;;;;;;;4950125;28;20477;-70
2022/09/29 09:52:40;;;;;;;0.60;0.60;;;;;;;;;;4990324;28;20402;-70
2022/09/29 09:55:14;;;;;;;0.75;0.70;;;;;;;;;;4979323;28;20620;-69
2022/09/29 09:57:48;;;;;;;1.23;0.65;;;;;;;;;;4991492;28;20076;-69
2022/09/29 10:00:15;;;;;;;1.67;0.80;;;;;;;;;;4986855;28;20053;-70
2022/09/29 10:02:49;;;;;;;2.45;1.00;;;;;;;;;;4987406;28;20049;-69
2022/09/29 10:05:25;;;;;;;1.00;0.90;;;;;;;;;;4980418;28;20137;-69
2022/09/29 10:07:52;;;;;;;0.80;0.80;;;;;;;;;;4988358;28;20062;-70
2022/09/29 10:10:22;;;;;;;2.50;0.90;;;;;;;;;;4983198;28;20046;-70
2022/09/29 10:13:00;;;;;;;0.95;0.95;;;;;;;;;;4979832;28;20042;-69
2022/09/29 10:15:40;;;;;;;1.25;0.80;;;;;;;;;;4988362;28;20478;-69
2022/09/29 10:18:21;;;;;;;6.47;0.98;;;;;;;;;;4987935;28;20141;-70
2022/09/29 10:20:46;;;;;;;2.10;1.15;;;;;;;;;;4982927;28;20133;-69
2022/09/29 10:23:35;;;;;;;1.27;0.75;;;;;;;;;;4987589;28;20213;-70
2022/09/29 10:26:03;;;;;;;1.25;0.85;;;;;;;;;;4989805;28;20054;-69
2022/09/29 10:28:45;;;;;;;1.00;1.00;;;;;;;;;;4991331;28;20578;-69
2022/09/29 10:31:17;;;;;;;1.00;1.00;;;;;;;;;;4989983;28;20495;-69
2022/09/29 10:33:49;;;;;;;1.83;1.30;;;;;;;;;;4991230;28;20380;-69
2022/09/29 10:36:16;;;;;;;1.23;1.13;;;;;;;;;;4988775;28;20057;-69
2022/09/29 10:38:46;;;;;;;1.75;1.00;;;;;;;;;;4993873;28;20042;-69
2022/09/29 10:41:11;;;;;;;1.95;0.95;;;;;;;;;;4988727;28;20050;-69
2022/09/29 10:43:41;;;;;;;1.30;1.17;;;;;;;;;;4987815;28;20052;-69
2022/09/29 10:46:50;;;;;;;3.38;1.13;;;;;;;;;;4985118;28;20054;-69
2022/09/29 10:49:20;;;;;;;0.70;0.70;;;;;;;;;;4981878;28;20089;-70
2022/09/29 10:51:59;;;;;;;1.27;1.10;;;;;;;;;;4988250;28;20081;-69
2022/09/29 10:54:27;;;;;;;2.58;1.00;;;;;;;;;;4982225;28;20052;-70
2022/09/29 10:56:54;;;;;;;1.42;1.33;;;;;;;;;;4987266;28;20057;-70
2022/09/29 10:59:22;;;;;;;1.20;1.10;;;;;;;;;;4983344;28;20173;-69
2022/09/29 11:01:51;;;;;;;2.22;1.10;;;;;;;;;;4983229;28;20054;-69
2022/09/29 11:04:31;;;;;;;1.83;1.40;;;;;;;;;;4989318;28;20050;-70
2022/09/29 11:07:05;;;;;;;3.03;1.10;;;;;;;;;;4969372;28;20053;-69
2022/09/29 11:09:37;;;;;;;2.70;1.40;;;;;;;;;;4989855;28;20116;-69
2022/09/29 11:12:03;;;;;;;;;;;;;;;;;;4985700;28;20054;-70
2022/09/29 11:14:36;;;;;;;2.60;2.40;;;;;;;;;;4988573;28;19933;-69
2022/09/29 11:17:19;;;;;;;1.50;1.40;;;;;;;;;;4983096;28;20046;-71
2022/09/29 11:19:45;;;;;;;1.90;1.80;;;;;;;;;;4985973;28;20057;-70
2022/09/29 11:22:32;;;;;;;1.98;1.80;;;;;;;;;;4984119;28;20058;-70
2022/09/29 11:25:12;;;;;;;1.73;1.63;;;;;;;;;;4979812;28;20997;-70
2022/09/29 11:28:03;;;;;;;7.40;1.80;;;;;;;;;;4964661;28;21032;-71
2022/09/29 11:30:57;;;;;;;2.60;2.40;;;;;;;;;;4983881;28;20145;-70
2022/09/29 11:33:38;;;;;;;1.90;1.50;;;;;;;;;;4981900;28;20070;-69
2022/09/29 11:36:22;;;;;;;1.65;1.55;;;;;;;;;;4981883;28;20050;-70
2022/09/29 11:39:25;;;;;;;1.80;1.70;;;;;;;;;;4987147;28;20439;-69
2022/09/29 11:41:53;;;;;;;1.85;1.75;;;;;;;;;;4971495;28;20491;-70
2022/09/29 11:44:35;;;;;;;2.25;1.65;;;;;;;;;;4981140;28;20430;-70
2022/09/29 11:47:31;;;;;;;2.03;1.80;;;;;;;;;;4981189;28;20698;-71
2022/09/29 11:50:05;;;;;;;2.33;2.13;;;;;;;;;;4981825;28;20046;-69
2022/09/29 11:52:59;;;;;;;5.25;2.42;;;;;;;;;;4988178;28;20125;-69
2022/09/29 11:55:41;;;;;;;3.35;2.40;;;;;;;;;;4980757;28;20522;-69
2022/09/29 11:58:27;;;;;;;3.63;2.95;;;;;;;;;;4981410;28;20458;-69
2022/09/29 12:01:11;;;;;;;2.60;2.40;;;;;;;;;;4982799;28;20050;-69
2022/09/29 12:04:02;;;;;;;3.33;2.70;;;;;;;;;;4964233;28;20109;-69
2022/09/29 12:06:50;;;;;;;2.83;2.60;;;;;;;;;;4980124;28;20168;-69
2022/09/29 12:09:41;;;;;;;3.40;2.75;;;;;;;;;;4979852;28;20637;-69
2022/09/29 12:12:30;;;;;;;4.07;2.30;;;;;;;;;;4956730;28;20196;-69
2022/09/29 12:15:20;;;;;;;2.28;2.08;;;;;;;;;;4983811;28;20050;-69
2022/09/29 12:17:51;;;;;;;2.20;2.10;;;;;;;;;;4960069;28;20062;-70
2022/09/29 12:20:28;;;;;;;2.28;2.08;;;;;;;;;;4979616;28;20609;-70
2022/09/29 12:22:57;;;;;;;2.20;2.10;;;;;;;;;;4985376;28;20576;-70
2022/09/29 12:25:28;;;;;;;8.35;2.80;;;;;;;;;;4981338;28;20061;-70
2022/09/29 12:28:00;;;;;;;4.45;2.10;;;;;;;;;;4988132;28;20137;-70
2022/09/29 12:30:36;;;;;;;2.25;2.15;;;;;;;;;;4981554;28;20054;-70
2022/09/29 12:33:14;;;;;;;2.50;2.22;;;;;;;;;;4982421;28;20123;-72
2022/09/29 12:39:08;;;;;;;2.47;2.25;;;;;;;;;;4985314;28;20503;-70
2022/09/29 12:41:36;;;;;;;2.47;2.28;;;;;;;;;;4947291;28;20046;-70
2022/09/29 12:44:23;;;;;;;2.70;2.50;;;;;;;;;;4988467;28;20050;-70
2022/09/29 12:46:55;;;;;;;2.78;2.58;;;;;;;;;;4988618;28;20046;-70
2022/09/29 12:49:43;;;;;;;;;;;;;;;;;;4985688;28;20068;-70
2022/09/29 12:52:17;;;;;;;3.97;2.85;;;;;;;;;;4984506;28;19922;-70
2022/09/29 12:54:53;;;;;;;2.70;2.50;;;;;;;;;;4987047;28;20499;-69
2022/09/29 12:57:25;;;;;;;4.38;2.72;;;;;;;;;;4986515;28;20129;-70
2022/09/29 13:00:01;;;;;;;3.08;2.35;;;;;;;;;;4991756;28;20053;-69
2022/09/29 13:02:35;;;;;;;2.22;2.03;;;;;;;;;;4984531;28;20038;-69
2022/09/29 13:05:26;;;;;;;2.47;2.28;;;;;;;;;;4984995;28;20085;-69
2022/09/29 13:08:17;;;;;;;3.83;2.65;;;;;;;;;;4971289;28;20069;-70
2022/09/29 13:11:16;;;;;;;6.88;2.50;;;;;;;;;;4956146;28;20042;-70
2022/09/29 13:13:54;;;;;;;2.80;2.28;;;;;;;;;;4967490;28;20065;-69
2022/09/29 13:16:37;;;;;;;2.60;2.40;;;;;;;;;;4985132;28;20085;-69
2022/09/29 13:19:38;;;;;;;3.72;2.28;;;;;;;;;;4985477;28;20050;-69
2022/09/29 13:22:25;;;;;;;4.53;2.67;;;;;;;;;;4986969;28;20049;-68
2022/09/29 13:25:10;;;;;;;2.65;2.45;;;;;;;;;;4965174;28;20505;-69
2022/09/29 13:27:41;;;;;;;2.60;2.40;;;;;;;;;;4955922;28;20050;-68
2022/09/29 13:30:26;;;;;;;3.00;1.60;;;;;;;;;;4986981;28;20053;-69
2022/09/29 13:33:07;;;;;;;2.38;2.17;;;;;;;;;;4981723;28;20064;-69
2022/09/29 13:35:39;;;;;;;4.47;1.58;;;;;;;;;;4955448;28;20100;-68
2022/09/29 13:38:06;;;;;;;2.45;1.55;;;;;;;;;;4981138;28;20076;-68
2022/09/29 13:40:32;;;;;;;2.45;1.60;;;;;;;;;;4988378;28;20042;-69
2022/09/29 13:43:02;;;;;;;3.72;2.00;;;;;;;;;;4983657;28;20600;-68
2022/09/29 13:45:27;;;;;;;1.60;1.50;;;;;;;;;;4982202;28;20051;-69
2022/09/29 13:47:58;;;;;;;4.50;1.83;;;;;;;;;;4981956;28;20121;-68
2022/09/29 13:50:46;;;;;;;3.92;2.58;;;;;;;;;;4997205;28;20661;-68
2022/09/29 13:53:18;;;;;;;2.38;1.95;;;;;;;;;;4981718;28;20685;-68
2022/09/29 13:56:01;;;;;;;1.70;1.60;;;;;;;;;;4990053;28;20125;-70
2022/09/29 13:58:30;;;;;;;2.33;1.73;;;;;;;;;;4983231;28;20509;-68
2022/09/29 14:00:58;;;;;;;2.53;2.15;;;;;;;;;;4982118;28;20042;-68
2022/09/29 14:03:31;;;;;;;3.13;2.03;;;;;;;;;;4981610;28;20410;-69
2022/09/29 14:06:24;;;;;;;3.78;2.90;;;;;;;;;;4981309;28;20082;-68
2022/09/29 14:09:11;;;;;;;4.45;3.70;;;;;;;;;;4986839;28;20054;-69
2022/09/29 14:11:43;;;;;;;3.28;2.85;;;;;;;;;;4970025;28;20050;-68
2022/09/29 14:14:25;;;;;;;4.38;2.72;;;;;;;;;;4981678;28;20144;-69
2022/09/29 14:17:04;;;;;;;3.88;2.80;;;;;;;;;;4982261;28;20994;-69
2022/09/29 14:19:52;;;;;;;4.30;3.40;;;;;;;;;;4981820;28;20096;-69
2022/09/29 14:22:29;;;;;;;4.35;2.85;;;;;;;;;;4990999;28;20340;-69
2022/09/29 14:25:07;;;;;;;4.78;3.50;;;;;;;;;;4981457;28;20058;-70
2022/09/29 14:27:36;;;;;;;4.78;4.38;;;;;;;;;;4981351;28;20064;-68
2022/09/29 14:30:07;;;;;;;4.57;3.92;;;;;;;;;;4982434;28;20058;-68
2022/09/29 14:32:41;;;;;;;5.07;3.90;;;;;;;;;;4989889;28;20129;-70
2022/09/29 14:35:37;;;;;;;4.03;3.50;;;;;;;;;;4984695;28;20065;-69
2022/09/29 14:38:08;;;;;;;6.80;4.30;;;;;;;;;;4972821;28;20441;-69
2022/09/29 14:40:34;;;;;;;6.57;4.63;;;;;;;;;;4983135;28;20104;-69
2022/09/29 14:43:16;;;;;;;5.22;4.15;;;;;;;;;;4986846;28;20566;-70
2022/09/29 14:52:22;;;;;;;5.40;4.03;;;;;;;;;;4966876;28;20054;-70
2022/09/29 14:54:50;;;;;;;38.50;19.45;;;;;;;;;;4981936;28;20042;-70
2022/09/29 14:57:31;;;;;;;16.83;9.00;;;;;;;;;;4982412;28;20101;-70
2022/09/29 15:00:19;;;;;;;26.85;12.15;;;;;;;;;;4982759;28;20058;-69
2022/09/29 15:02:52;;;;;;;12.40;7.90;;;;;;;;;;4992796;28;20100;-69
2022/09/29 15:05:24;;;;;;;10.13;5.13;;;;;;;;;;4980962;28;20054;-69
2022/09/29 15:07:49;;;;;;;7.05;5.53;;;;;;;;;;4982022;28;20073;-72
2022/09/29 15:10:27;;;;;;;4.75;3.88;;;;;;;;;;4982036;28;20692;-72
2022/09/29 15:13:18;;;;;;;7.13;4.68;;;;;;;;;;4982256;28;20137;-69
2022/09/29 15:15:47;;;;;;;12.05;6.65;;;;;;;;;;4969236;28;20042;-69
2022/09/29 15:18:32;;;;;;;4.30;3.33;;;;;;;;;;4981554;28;20188;-69
2022/09/29 15:21:05;;;;;;;9.10;6.05;;;;;;;;;;4983226;28;20077;-70
2022/09/29 15:23:49;;;;;;;8.63;5.30;;;;;;;;;;4983481;28;20046;-70
2022/09/29 15:26:17;;;;;;;5.28;3.80;;;;;;;;;;4983806;28;20745;-70